Time;durP1;ratioP1;P1;durP2;ratioP2;P2;SDS_P1;SDS_P2;PMS_P1;PMS_P2;Temp;Humidity;BMP_temperature;BMP_pressure;BME280_temperature;BME280_humidity;BME280_pressure;Samples;Min_cycle;Max_cycle;Signal;HPM_P1;HPM_P2
2024/01/19 00:00:08;;;;;;;16.70;1.80;;;-1.70;99.90;;;-3.43;95.09;100101.19;6161405;22;20019;-80
2024/01/19 00:02:33;;;;;;;;;;;-1.60;99.90;;;-3.41;94.84;100095.16;6148530;22;20537;-80
2024/01/19 00:04:59;;;;;;;11.88;1.80;;;-1.60;99.90;;;-3.38;94.70;100094.28;6168110;22;19911;-81
2024/01/19 00:07:25;;;;;;;9.00;1.80;;;-1.60;99.90;;;-3.38;95.37;100089.16;6131592;22;20452;-81
2024/01/19 00:09:53;;;;;;;7.93;2.03;;;-1.60;99.90;;;-3.35;95.43;100090.03;6169819;22;22283;-80
2024/01/19 00:12:19;;;;;;;5.15;1.60;;;-0.80;99.90;;;-3.34;95.00;100096.88;6181043;22;20011;-80
2024/01/19 00:14:45;;;;;;;10.48;2.72;;;-1.60;99.90;;;-3.33;94.94;100097.72;6190302;22;20016;-81
2024/01/19 00:17:10;;;;;;;7.18;1.75;;;-1.50;99.90;;;-3.34;95.51;100093.44;6147364;22;20059;-80
2024/01/19 00:19:36;;;;;;;20.60;2.47;;;-1.60;99.90;;;-3.34;94.87;100094.28;6199913;22;20011;-80
2024/01/19 00:22:02;;;;;;;8.38;1.90;;;-1.60;99.90;;;-3.34;95.34;100096.03;6241369;22;20087;-81
2024/01/19 00:24:27;;;;;;;11.35;1.90;;;-1.60;99.90;;;-3.32;95.03;100096.88;6257496;22;20082;-81
2024/01/19 00:26:54;;;;;;;2.97;1.63;;;-1.50;99.90;;;-3.37;95.44;100103.72;6202298;22;20086;-80
2024/01/19 00:29:24;;;;;;;9.95;1.83;;;-1.50;99.90;;;-3.35;95.42;100108.03;6217071;22;20035;-81
2024/01/19 00:31:50;;;;;;;13.65;2.55;;;-1.50;99.90;;;-3.33;95.78;100120.88;6202570;22;20456;-81
2024/01/19 00:34:16;;;;;;;19.65;2.67;;;-1.50;99.90;;;-3.30;96.27;100119.19;6226110;22;20011;-81
2024/01/19 00:36:42;;;;;;;15.25;2.50;;;-1.50;99.90;;;-3.30;96.17;100119.19;6198173;22;20012;-81
2024/01/19 00:39:08;;;;;;;9.48;2.25;;;-1.50;99.90;;;-3.27;96.74;100126.03;6164419;22;20018;-81
2024/01/19 00:41:34;;;;;;;18.05;2.83;;;-1.50;99.90;;;-3.25;96.84;100121.75;6145466;22;20609;-80
2024/01/19 00:44:02;;;;;;;6.05;1.58;;;-1.40;99.90;;;-3.23;96.76;100119.19;6141699;22;20049;-81
2024/01/19 00:46:29;;;;;;;17.20;2.72;;;-1.40;99.90;;;-3.21;96.68;100125.19;6236417;22;20073;-80
2024/01/19 00:48:55;;;;;;;7.50;1.90;;;-1.40;99.90;;;-3.21;96.65;100117.47;6237814;22;20068;-79
2024/01/19 00:51:21;;;;;;;6.60;2.17;;;-1.40;99.90;;;-3.21;96.69;100115.75;6194980;22;20012;-81
2024/01/19 00:53:46;;;;;;;5.88;1.88;;;-1.40;99.90;;;-3.17;96.76;100120.03;6211825;22;20093;-81
2024/01/19 00:56:13;;;;;;;9.10;2.40;;;-1.30;99.90;;;-3.11;97.12;100114.00;6253485;22;20011;-81
2024/01/19 00:58:43;;;;;;;12.00;2.80;;;-1.30;99.90;;;-3.03;97.25;100114.03;6207743;22;20057;-81
2024/01/19 01:01:09;;;;;;;4.65;2.17;;;-1.30;99.90;;;-2.98;97.51;100122.59;6149919;22;20079;-81
2024/01/19 01:03:35;;;;;;;6.38;2.15;;;-1.20;99.90;;;-2.97;97.55;100120.03;6191170;22;20562;-81
2024/01/19 01:06:00;;;;;;;8.18;2.38;;;-1.20;99.90;;;-2.92;97.40;100112.28;6172972;22;20078;-81
2024/01/19 01:08:27;;;;;;;9.68;2.10;;;-1.10;99.90;;;-2.85;97.99;100119.16;6143382;22;20104;-80
2024/01/19 01:10:56;;;;;;;6.57;1.80;;;-1.10;99.90;;;-2.83;97.92;100117.44;6155401;22;20019;-80
2024/01/19 01:13:25;;;;;;;8.57;2.38;;;-1.10;99.90;;;-2.78;97.95;100118.28;6220810;22;20038;-80
2024/01/19 01:15:51;;;;;;;9.00;2.42;;;-1.10;99.90;;;-2.74;97.40;100126.88;6171633;22;20030;-80
2024/01/19 01:18:19;;;;;;;6.65;1.65;;;;;;;-2.73;97.92;100131.16;6187667;22;20099;-80
2024/01/19 01:20:45;;;;;;;7.50;1.95;;;-1.00;99.90;;;-2.71;97.47;100124.28;6215172;22;20138;-80
2024/01/19 01:23:16;;;;;;;4.10;1.77;;;-1.00;99.90;;;-2.66;97.42;100124.25;6158526;22;20378;-80
2024/01/19 01:25:42;;;;;;;6.25;1.83;;;-0.90;99.90;;;-2.64;97.44;100125.13;6193286;22;20503;-80
2024/01/19 01:28:08;;;;;;;5.97;1.55;;;-0.90;99.90;;;-2.62;97.32;100125.97;6195087;22;20012;-80
2024/01/19 01:30:34;;;;;;;8.75;1.77;;;-0.90;99.90;;;-2.60;97.07;100130.25;6161064;22;20505;-80
2024/01/19 01:33:00;;;;;;;7.13;1.55;;;-0.90;99.90;;;-2.60;96.64;100134.56;6196959;22;20078;-80
2024/01/19 01:35:33;;;;;;;3.45;1.42;;;-0.90;99.90;;;-2.59;96.59;100126.84;6230017;22;20478;-80
2024/01/19 01:37:59;;;;;;;9.02;1.50;;;-0.90;99.90;;;-2.60;96.69;100134.56;6248856;22;20018;-80
2024/01/19 01:40:25;;;;;;;6.07;1.40;;;-0.90;99.90;;;-2.66;96.60;100134.56;6230163;22;20455;-79
2024/01/19 01:43:01;;;;;;;3.25;1.30;;;-0.90;99.90;;;-2.65;96.40;100134.56;6220223;22;20082;-81
2024/01/19 01:45:28;;;;;;;3.70;1.00;;;-0.90;99.90;;;-2.70;96.25;100137.16;6215141;22;20016;-81
2024/01/19 01:47:55;;;;;;;9.15;1.25;;;-0.90;99.90;;;-2.66;95.86;100132.00;6206927;22;20607;-80
2024/01/19 01:50:21;;;;;;;1.75;0.93;;;-0.90;99.90;;;-2.66;96.03;100132.84;6266363;22;20019;-80
2024/01/19 01:52:53;;;;;;;6.70;0.80;;;-0.90;99.90;;;-2.58;96.84;100132.84;6233594;22;20011;-80
2024/01/19 01:55:21;;;;;;;6.38;0.70;;;-0.80;99.90;;;-2.51;98.02;100139.69;6141192;22;20007;-81
2024/01/19 01:57:46;;;;;;;10.43;0.90;;;-0.70;99.90;;;-2.44;98.13;100137.94;6181259;22;20081;-81
2024/01/19 02:00:18;;;;;;;5.28;0.70;;;-0.70;99.90;;;-2.37;98.14;100132.78;6208185;22;20383;-81
2024/01/19 02:02:46;;;;;;;3.00;1.00;;;-0.40;99.90;;;-2.35;98.22;100136.22;6229425;22;20024;-80
2024/01/19 02:05:12;;;;;;;3.60;0.75;;;-0.60;99.90;;;-2.29;98.00;100138.78;6177425;22;20015;-80
2024/01/19 02:07:38;;;;;;;6.70;1.10;;;-0.50;99.90;;;-2.23;97.74;100137.88;6189600;22;21188;-79
2024/01/19 02:10:04;;;;;;;13.85;1.33;;;-0.50;99.90;;;-2.18;98.05;100143.00;6169733;22;20379;-80
2024/01/19 02:12:36;;;;;;;5.43;0.80;;;-0.40;99.90;;;-2.12;97.95;100143.00;6192467;22;20007;-81
2024/01/19 02:15:02;;;;;;;1.90;0.60;;;-0.40;99.90;;;-2.15;97.32;100138.72;6249340;22;20038;-81
2024/01/19 02:17:28;;;;;;;7.65;1.00;;;-0.40;99.90;;;-2.18;97.09;100141.31;6224191;22;20086;-81
2024/01/19 02:19:54;;;;;;;3.05;0.68;;;-0.40;99.90;;;-2.22;96.58;100138.75;6225387;22;20078;-80
2024/01/19 02:22:20;;;;;;;5.60;0.98;;;-0.50;99.90;;;-2.25;96.38;100144.75;6151276;22;20011;-80
2024/01/19 02:24:55;;;;;;;2.38;0.73;;;-0.50;99.90;;;-2.24;95.75;100148.22;6172271;22;20026;-80
2024/01/19 02:27:21;;;;;;;6.23;0.93;;;-0.40;99.90;;;-2.18;96.56;100154.22;6174341;22;20069;-81
2024/01/19 02:29:57;;;;;;;2.97;1.10;;;-0.40;99.90;;;-2.18;96.40;100153.31;6171790;22;20113;-80
2024/01/19 02:32:23;;;;;;;4.78;1.30;;;-0.40;99.90;;;-2.15;95.97;100163.66;6218368;22;20044;-80
2024/01/19 02:34:49;;;;;;;2.25;0.80;;;-0.40;99.90;;;-2.15;96.26;100158.50;6175541;22;20012;-81
2024/01/19 02:37:14;;;;;;;8.15;1.83;;;-0.40;99.90;;;-2.10;96.37;100169.66;6203791;22;20182;-80
2024/01/19 02:39:41;;;;;;;4.95;1.50;;;-0.30;99.90;;;-2.09;96.43;100169.66;6230307;22;20012;-81
2024/01/19 02:42:11;;;;;;;5.93;1.75;;;-0.30;99.90;;;-2.06;96.84;100179.94;6210603;22;20035;-81
2024/01/19 02:44:37;;;;;;;3.65;1.00;;;-0.30;99.90;;;-2.08;96.57;100181.66;6206604;22;20015;-80
2024/01/19 02:47:03;;;;;;;4.30;1.77;;;-0.30;99.90;;;-2.04;96.67;100187.69;6195954;22;20011;-81
2024/01/19 02:49:29;;;;;;;4.30;1.42;;;-0.30;99.90;;;-2.02;96.98;100182.53;6176221;22;20533;-80
2024/01/19 02:51:55;;;;;;;5.47;1.98;;;-0.20;99.90;;;-1.98;96.79;100171.34;6199381;22;20552;-80
2024/01/19 02:54:21;;;;;;;4.55;1.35;;;-0.20;99.90;;;-1.97;97.19;100167.88;6171319;22;20018;-81
2024/01/19 02:56:49;;;;;;;5.32;1.95;;;-0.20;99.90;;;-1.97;96.89;100158.41;6186091;22;20025;-79
2024/01/19 02:59:14;;;;;;;7.78;2.13;;;-0.20;99.90;;;-1.94;97.69;100163.56;6184298;22;20019;-80
2024/01/19 03:01:40;;;;;;;8.02;2.63;;;-0.20;99.90;;;-1.91;97.55;100162.69;6201692;22;20019;-81
2024/01/19 03:04:06;;;;;;;10.38;1.55;;;-0.10;99.90;;;-1.90;97.76;100172.13;6215416;22;20467;-80
2024/01/19 03:06:32;;;;;;;6.28;2.20;;;-0.20;99.90;;;-1.89;97.43;100172.13;6233169;22;20003;-80
2024/01/19 03:08:57;;;;;;;7.15;1.92;;;-0.10;99.90;;;-1.88;98.03;100167.81;6220176;22;20032;-79
2024/01/19 03:11:23;;;;;;;5.32;2.25;;;-0.10;99.90;;;-1.84;97.81;100171.25;6200227;22;20074;-80
2024/01/19 03:13:52;;;;;;;5.82;2.15;;;-0.10;99.90;;;-1.88;97.82;100173.88;6216998;22;20091;-80
2024/01/19 03:16:21;;;;;;;8.43;2.60;;;-0.10;99.90;;;-1.90;97.81;100169.56;6206681;22;20574;-81
2024/01/19 03:18:46;;;;;;;4.78;2.05;;;-0.10;99.90;;;-1.90;97.64;100166.97;6176452;22;20426;-81
2024/01/19 03:21:12;;;;;;;6.78;2.38;;;-0.10;99.90;;;-1.94;97.93;100158.41;6254088;22;20087;-80
2024/01/19 03:23:39;;;;;;;5.15;2.45;;;-0.20;99.90;;;-1.91;98.29;100160.09;6226547;22;20026;-81
2024/01/19 03:26:05;;;;;;;5.78;2.42;;;-0.10;99.90;;;-1.90;98.49;100164.38;6273013;22;20393;-80
2024/01/19 03:28:36;;;;;;;8.25;2.03;;;-0.10;99.90;;;-1.92;97.99;100156.69;6200643;22;20003;-80
2024/01/19 03:31:03;;;;;;;6.38;2.70;;;-0.10;99.90;;;-1.89;97.93;100166.13;6174389;22;20079;-80
2024/01/19 03:33:28;;;;;;;6.80;2.15;;;-0.10;99.90;;;-1.88;98.22;100163.53;6216500;22;20071;-81
2024/01/19 03:35:54;;;;;;;4.57;2.30;;;-0.10;99.90;;;-1.82;98.13;100161.78;6245084;22;20098;-79
2024/01/19 03:38:20;;;;;;;3.38;1.77;;;0.00;99.90;;;-1.85;98.17;100154.91;6229476;22;20392;-80
2024/01/19 03:40:55;;;;;;;7.25;3.15;;;-0.10;99.90;;;-1.79;98.27;100161.75;6190049;22;20017;-80
2024/01/19 03:43:22;;;;;;;7.13;1.98;;;0.00;99.90;;;-1.78;98.02;100169.50;6214042;22;20011;-81
2024/01/19 03:45:47;;;;;;;8.70;2.92;;;0.00;99.90;;;-1.75;97.83;100164.34;6167136;22;20050;-80
2024/01/19 03:48:13;;;;;;;13.10;3.22;;;0.00;99.90;;;-1.76;97.65;100170.34;6225642;22;20012;-80
2024/01/19 03:50:44;;;;;;;9.07;2.25;;;0.00;99.90;;;-1.76;97.51;100170.34;6216601;22;20098;-80
2024/01/19 03:53:10;;;;;;;8.73;2.05;;;0.00;99.90;;;-1.76;97.68;100159.19;6167714;22;20030;-81
2024/01/19 03:55:36;;;;;;;8.10;1.83;;;0.00;99.90;;;-1.78;97.30;100168.66;6150306;22;20094;-80
2024/01/19 03:58:02;;;;;;;4.80;2.08;;;0.00;99.90;;;-1.78;98.07;100176.38;6220826;22;20011;-79
2024/01/19 04:00:28;;;;;;;8.98;3.00;;;0.00;99.90;;;-1.77;97.88;100172.94;6188683;22;20109;-81
2024/01/19 04:02:59;;;;;;;7.95;3.67;;;0.00;99.90;;;-1.75;97.88;100179.81;6198865;22;20012;-79
2024/01/19 04:05:25;;;;;;;8.13;3.00;;;0.00;99.90;;;-1.77;97.93;100178.09;6172223;22;20069;-80
2024/01/19 04:07:51;;;;;;;5.95;3.25;;;0.00;99.90;;;-1.78;97.83;100174.66;6221021;22;20034;-81
2024/01/19 04:10:16;;;;;;;5.57;2.90;;;0.00;99.90;;;-1.78;98.43;100185.00;6230786;22;20100;-81
2024/01/19 04:12:42;;;;;;;10.38;3.63;;;0.00;99.90;;;-1.78;97.64;100181.56;6166597;22;20094;-80
2024/01/19 04:15:09;;;;;;;7.60;3.65;;;0.00;99.90;;;-1.77;97.58;100181.56;6151943;22;20014;-80
2024/01/19 04:17:37;;;;;;;7.00;3.78;;;0.00;99.90;;;-1.79;97.68;100184.97;6209019;22;20007;-81
2024/01/19 04:20:06;;;;;;;12.82;4.43;;;0.00;99.90;;;-1.82;97.36;100185.88;6160065;22;20017;-80
2024/01/19 04:22:31;;;;;;;10.40;4.50;;;-0.10;99.90;;;-1.84;97.58;100186.75;6178693;22;20012;-80
2024/01/19 04:24:57;;;;;;;13.23;3.95;;;-0.10;99.90;;;-1.84;97.19;100189.31;6206725;22;20133;-80
2024/01/19 04:27:23;;;;;;;8.68;4.40;;;-0.10;99.90;;;-1.83;97.33;100191.06;6135991;22;20471;-80
2024/01/19 04:29:49;;;;;;;6.65;2.63;;;-0.10;99.90;;;-1.88;97.75;100193.63;6193610;22;20035;-80
2024/01/19 04:32:15;;;;;;;8.73;3.72;;;-0.10;99.90;;;-1.88;97.90;100191.94;6172908;22;20082;-80
2024/01/19 04:34:40;;;;;;;9.95;4.13;;;-0.10;99.90;;;-1.87;98.82;100197.94;6210702;22;20077;-80
2024/01/19 04:37:09;;;;;;;12.68;3.90;;;-0.10;99.90;;;-1.81;98.81;100197.03;6203695;22;20007;-80
2024/01/19 04:39:35;;;;;;;5.38;2.28;;;0.00;99.90;;;-1.83;99.88;100197.06;6155882;22;20034;-80
2024/01/19 04:42:01;;;;;;;7.93;3.53;;;0.00;99.90;;;-1.80;99.71;100201.34;6213045;22;20137;-81
2024/01/19 04:44:42;;;;;;;11.18;4.38;;;0.00;99.90;;;-1.82;100.00;100203.06;6159432;22;20119;-83
2024/01/19 04:47:17;;;;;;;8.75;3.80;;;;;;;-1.81;100.00;100215.97;6224831;22;20018;-83
2024/01/19 04:49:43;;;;;;;10.43;3.55;;;0.00;99.90;;;-1.82;100.00;100213.41;6162137;22;20012;-83
2024/01/19 04:52:12;;;;;;;7.63;3.28;;;;;;;-1.84;100.00;100218.56;6190688;22;20018;-83
2024/01/19 04:54:45;;;;;;;8.95;3.50;;;;;;;-1.86;100.00;100215.13;6158274;23;20110;-83
2024/01/19 04:57:14;;;;;;;6.85;2.45;;;;;;;-1.85;100.00;100219.44;6131780;22;20518;-83
2024/01/19 05:00:05;;;;;;;7.40;2.65;;;0.00;99.90;;;-1.84;100.00;100236.63;6145888;23;20023;-84
2024/01/19 05:02:32;;;;;;;11.23;3.85;;;0.00;99.90;;;-1.83;100.00;100234.94;6117872;22;20013;-83
2024/01/19 05:05:24;;;;;;;5.30;3.05;;;0.00;99.90;;;-1.82;100.00;100241.78;6164710;22;20023;-83
2024/01/19 05:07:54;;;;;;;19.35;3.53;;;;;;;-1.79;100.00;100240.06;6143368;22;20019;-82
2024/01/19 05:10:46;;;;;;;10.45;3.78;;;;;;;-1.73;100.00;100249.50;6163362;23;20016;-83
2024/01/19 05:13:12;;;;;;;6.63;2.70;;;0.00;99.90;;;-1.78;100.00;100251.25;6112428;23;20524;-82
2024/01/19 05:15:55;;;;;;;12.68;4.32;;;;;;;-1.74;100.00;100260.69;6094906;23;20017;-82
2024/01/19 05:18:45;;;;;;;10.85;3.85;;;;;;;-1.74;100.00;100268.44;6084627;23;20577;-84
2024/01/19 05:21:44;;;;;;;10.63;4.90;;;0.10;99.90;;;-1.66;100.00;100264.09;6026711;23;20029;-83
2024/01/19 05:24:22;;;;;;;7.15;3.60;;;;;;;-1.65;100.00;100252.91;6147743;22;20024;-83
2024/01/19 05:29:43;;;;;;;9.00;3.35;;;;;;;-1.69;100.00;100264.97;6093202;23;20050;-83
2024/01/19 05:32:36;;;;;;;;;;;;;;;;;;;;;
2024/01/19 05:35:03;;;;;;;11.55;4.05;;;0.10;99.90;;;-1.67;100.00;100259.78;6135032;22;21483;-83
2024/01/19 05:37:29;;;;;;;6.00;3.38;;;0.10;99.90;;;-1.67;100.00;100259.78;6077247;22;20004;-83
2024/01/19 05:39:55;;;;;;;13.82;3.63;;;0.10;99.90;;;-1.69;100.00;100257.22;6111479;23;20150;-82
2024/01/19 05:42:32;;;;;;;14.48;3.63;;;;;;;-1.67;100.00;100264.97;6085205;22;20016;-83
2024/01/19 05:45:01;;;;;;;9.13;3.22;;;0.10;99.90;;;-1.69;100.00;100261.53;6173092;23;20031;-82
2024/01/19 05:47:35;;;;;;;14.13;3.50;;;0.10;99.90;;;-1.67;100.00;100270.13;6106004;23;20115;-82
2024/01/19 05:50:04;;;;;;;6.75;3.22;;;0.10;99.90;;;-1.67;100.00;100265.81;6133737;23;20016;-84
2024/01/19 05:52:53;;;;;;;7.07;2.88;;;0.10;99.90;;;-1.66;100.00;100275.28;6084733;22;20084;-84
2024/01/19 05:55:22;;;;;;;5.10;2.85;;;;;;;-1.67;100.00;100270.13;6020646;23;20022;-84
2024/01/19 05:58:31;;;;;;;13.57;3.88;;;;;;;-1.68;100.00;100271.00;6064757;23;20022;-83
2024/01/19 06:01:15;;;;;;;6.93;3.05;;;;;;;-1.69;100.00;100271.84;5916817;23;20024;-83
2024/01/19 06:03:52;;;;;;;8.55;2.83;;;;;;;-1.68;100.00;100273.59;5930891;23;20023;-82
2024/01/19 06:06:32;;;;;;;9.13;2.70;;;0.10;99.90;;;-1.73;100.00;100268.44;5915261;23;20022;-83
2024/01/19 06:09:11;;;;;;;9.02;3.40;;;0.10;99.90;;;-1.61;100.00;100277.84;5953941;23;20004;-84
2024/01/19 06:11:57;;;;;;;11.55;3.90;;;0.10;99.90;;;-1.63;100.00;100269.25;5936807;23;20116;-82
2024/01/19 06:14:32;;;;;;;5.10;2.90;;;;;;;-1.64;100.00;100272.72;5929672;23;20621;-82
2024/01/19 06:17:03;;;;;;;8.60;2.80;;;0.20;99.90;;;-1.65;100.00;100278.72;5994243;23;20402;-83
2024/01/19 06:19:33;;;;;;;17.48;3.00;;;;;;;-1.64;100.00;100288.19;5926788;23;20022;-82
2024/01/19 06:22:04;;;;;;;9.85;2.83;;;;;;;-1.62;100.00;100273.56;6005432;23;20018;-82
2024/01/19 06:24:43;;;;;;;7.30;2.88;;;;;;;-1.57;100.00;100287.31;5967647;23;20028;-81
2024/01/19 06:27:32;;;;;;;9.63;3.25;;;0.20;99.90;;;-1.57;100.00;100286.44;5974264;23;20039;-82
2024/01/19 06:30:00;;;;;;;4.78;2.65;;;;;;;-1.59;100.00;100291.63;5938382;23;20015;-81
2024/01/19 06:32:52;;;;;;;8.57;3.13;;;;;;;-1.54;100.00;100307.94;5995269;23;20010;-81
2024/01/19 06:35:24;;;;;;;9.77;2.60;;;;;;;-1.58;100.00;100311.38;6010901;23;20017;-85
2024/01/19 06:38:03;;;;;;;15.50;4.35;;;0.30;99.90;;;-1.50;100.00;100309.63;6065361;22;20086;-82
2024/01/19 06:40:52;;;;;;;3.70;2.15;;;;;;;-1.51;100.00;100307.94;6135644;22;20025;-82
2024/01/19 06:43:23;;;;;;;9.13;2.72;;;0.30;99.90;;;-1.56;100.00;100307.06;6011689;23;20008;-84
2024/01/19 06:45:55;;;;;;;4.18;2.67;;;;;;;-1.57;100.00;100313.13;6031787;23;20029;-83
2024/01/19 06:48:24;;;;;;;4.78;1.70;;;0.30;99.90;;;-1.59;100.00;100314.84;6125903;23;20009;-84
2024/01/19 06:54:29;;;;;;;7.78;2.42;;;0.30;99.90;;;-1.58;100.00;100305.38;6012735;23;20018;-83
2024/01/19 06:56:55;;;;;;;4.85;2.08;;;0.30;99.90;;;-1.50;100.00;100317.38;6027241;23;20018;-82
2024/01/19 06:59:23;;;;;;;9.95;2.55;;;0.30;99.90;;;-1.52;100.00;100310.50;6010359;23;20018;-82
2024/01/19 07:02:12;;;;;;;4.60;2.38;;;0.30;99.90;;;-1.49;100.00;100315.66;6019101;23;20025;-83
2024/01/19 07:04:40;;;;;;;10.35;3.08;;;0.30;99.90;;;-1.45;100.00;100322.53;6057037;23;20038;-83
2024/01/19 07:07:06;;;;;;;4.55;2.15;;;0.30;99.90;;;-1.44;100.00;100334.59;6046068;23;20034;-83
2024/01/19 07:09:41;;;;;;;7.55;2.85;;;0.30;99.90;;;-1.42;100.00;100337.19;5990502;23;20152;-83
2024/01/19 07:15:01;;;;;;;6.80;2.33;;;;;;;-1.44;100.00;100347.50;6176395;22;20020;-83
2024/01/19 07:17:43;;;;;;;2.72;1.73;;;0.40;99.90;;;-1.43;100.00;100350.94;6149565;22;20020;-82
2024/01/19 07:20:21;;;;;;;5.78;2.10;;;;;;;-1.42;100.00;100342.34;6171737;23;20015;-83
2024/01/19 07:22:47;;;;;;;10.90;2.40;;;0.40;99.90;;;-1.40;100.00;100348.34;6147062;22;20020;-82
2024/01/19 07:25:13;;;;;;;7.30;2.80;;;0.40;99.90;;;-1.37;100.00;100356.94;6105687;22;20073;-82
2024/01/19 07:28:13;;;;;;;7.00;2.38;;;0.40;99.90;;;-1.36;100.00;100352.63;6102992;22;20394;-82
2024/01/19 07:30:45;;;;;;;7.07;2.67;;;;;;;-1.37;100.00;100349.19;6182198;22;20069;-83
2024/01/19 07:33:14;;;;;;;13.30;2.25;;;0.40;99.90;;;-1.36;100.00;100355.22;6152812;22;20020;-83
2024/01/19 07:35:52;;;;;;;4.85;2.70;;;;;;;-1.35;100.00;100356.94;6116801;22;20750;-83
2024/01/19 07:38:20;;;;;;;11.55;2.70;;;;;;;-1.41;100.00;100346.63;6131854;22;20012;-81
2024/01/19 07:40:59;;;;;;;7.85;2.67;;;0.40;99.90;;;-1.38;100.00;100365.56;6171042;22;20143;-82
2024/01/19 07:43:25;;;;;;;10.07;3.05;;;0.40;99.90;;;-1.44;100.00;100357.84;6126208;23;20024;-81
2024/01/19 07:46:05;;;;;;;6.97;2.45;;;0.40;99.90;;;-1.43;100.00;100361.28;6080165;23;20084;-82
2024/01/19 07:48:54;;;;;;;10.32;2.90;;;0.40;99.90;;;-1.42;100.00;100363.00;6023917;23;20085;-83
2024/01/19 07:51:22;;;;;;;10.10;2.55;;;0.40;99.90;;;-1.44;100.00;100360.41;6097246;23;20016;-83
2024/01/19 07:54:13;;;;;;;8.88;2.28;;;0.30;99.90;;;-1.40;100.00;100374.16;6120402;22;20037;-81
2024/01/19 07:56:38;;;;;;;13.57;2.97;;;0.40;99.90;;;-1.40;100.00;100367.28;6117535;22;20027;-81
2024/01/19 07:59:04;;;;;;;13.07;3.08;;;0.40;99.90;;;-1.37;100.00;100371.59;6152203;22;20013;-82
2024/01/19 08:01:30;;;;;;;7.65;2.10;;;0.40;99.90;;;-1.31;100.00;100380.16;6135763;22;20028;-82
2024/01/19 08:03:56;;;;;;;5.72;2.53;;;0.40;99.90;;;-1.27;100.00;100381.88;6199657;22;20017;-81
2024/01/19 08:07:02;;;;;;;5.80;2.65;;;0.50;99.90;;;-1.19;100.00;100381.84;6203731;22;20024;-82
2024/01/19 08:09:28;;;;;;;5.67;2.33;;;0.50;99.90;;;-1.20;100.00;100384.44;6042544;23;20014;-82
2024/01/19 08:11:54;;;;;;;9.90;2.45;;;0.50;99.90;;;-1.15;100.00;100387.84;6027358;23;20245;-81
2024/01/19 08:14:20;;;;;;;5.72;2.50;;;0.60;99.90;;;-1.08;100.00;100390.44;6069728;23;20469;-81
2024/01/19 08:16:52;;;;;;;8.73;2.72;;;;;;;-1.03;100.00;100405.91;6002477;23;20023;-82
2024/01/19 08:19:21;;;;;;;10.15;2.78;;;0.70;99.90;;;-0.97;100.00;100394.66;6000526;23;20068;-82
2024/01/19 08:21:47;;;;;;;10.25;2.60;;;0.70;99.90;;;-0.95;100.00;100404.16;6014114;23;20018;-81
2024/01/19 08:24:13;;;;;;;6.03;2.20;;;0.70;99.90;;;-0.98;100.00;100401.56;6016983;23;20025;-81
2024/01/19 08:26:46;;;;;;;7.43;1.85;;;0.80;99.90;;;-0.97;100.00;100403.31;5967518;23;20015;-83
2024/01/19 08:29:12;;;;;;;8.00;2.08;;;0.80;99.90;;;-0.90;100.00;100409.28;6001610;23;20070;-82
2024/01/19 08:31:52;;;;;;;7.43;2.45;;;0.90;99.90;;;-0.82;100.00;100417.88;6009442;23;20057;-83
2024/01/19 08:34:49;;;;;;;10.98;2.50;;;1.00;99.90;;;-0.69;100.00;100421.22;6040743;23;20015;-82
2024/01/19 08:40:19;;;;;;;7.82;2.40;;;1.10;99.90;;;-0.59;100.00;100430.66;5949696;23;20335;-81
2024/01/19 08:42:46;;;;;;;7.30;3.03;;;;;;;-0.49;100.00;100436.66;5940654;23;20050;-82
2024/01/19 08:45:12;;;;;;;10.85;2.00;;;1.20;99.90;;;-0.43;100.00;100440.06;5918141;23;20023;-83
2024/01/19 08:50:44;;;;;;;8.77;2.60;;;1.30;99.90;;;-0.34;100.00;100446.91;5875433;23;20016;-82
2024/01/19 08:53:13;;;;;;;7.63;2.20;;;1.40;99.90;;;-0.25;99.60;100446.84;5973245;22;20020;-83
2024/01/19 08:55:51;;;;;;;6.80;2.63;;;;;;;-0.23;99.46;100462.38;6223823;22;20741;-82
2024/01/19 08:58:51;;;;;;;8.05;2.42;;;1.40;99.90;;;-0.32;98.25;100471.03;6213037;22;20213;-82
2024/01/19 09:01:24;;;;;;;8.05;2.92;;;1.40;99.90;;;-0.42;97.39;100471.97;6136079;22;20070;-81
2024/01/19 09:03:53;;;;;;;6.97;2.60;;;1.40;99.90;;;-0.37;97.04;100483.13;6190295;22;20034;-82
2024/01/19 09:06:18;;;;;;;9.75;3.40;;;1.40;99.90;;;-0.30;97.03;100481.38;6233476;22;20394;-81
2024/01/19 09:08:45;;;;;;;12.80;2.75;;;1.40;99.90;;;-0.24;96.87;100492.56;6180723;22;20007;-82
2024/01/19 09:11:22;;;;;;;8.45;2.30;;;1.50;99.90;;;-0.18;96.77;100495.97;6223613;22;20022;-81
2024/01/19 09:14:26;;;;;;;;;;;;;;;;;;;;;
2024/01/19 09:16:52;;;;;;;3.45;1.48;;;1.60;99.90;;;-0.22;96.71;100503.78;6242162;22;20083;-80
2024/01/19 09:19:21;;;;;;;8.65;2.45;;;1.60;99.90;;;-0.14;96.05;100515.78;6223563;22;20023;-81
2024/01/19 09:21:57;;;;;;;;;;;;;;;;;;;;;
2024/01/19 09:24:24;;;;;;;18.52;2.53;;;1.70;99.90;;;0.07;95.48;100525.16;6173235;22;20103;-80
2024/01/19 09:26:51;;;;;;;14.70;2.00;;;1.80;99.90;;;0.09;95.25;100524.28;6157991;23;20638;-82
2024/01/19 09:29:17;;;;;;;8.27;1.95;;;1.80;99.90;;;0.15;95.12;100529.41;6207232;22;20011;-81
2024/01/19 09:31:52;;;;;;;10.02;2.17;;;1.80;99.90;;;0.08;94.50;100535.47;6185021;22;20101;-82
2024/01/19 09:34:18;;;;;;;13.07;2.08;;;1.80;99.90;;;0.18;94.10;100544.06;6134307;22;20020;-81
2024/01/19 09:36:44;;;;;;;7.68;1.92;;;;;;;0.00;93.98;100555.41;6157943;22;20020;-82
2024/01/19 09:39:32;;;;;;;7.20;2.00;;;1.80;99.90;;;0.06;93.82;100551.91;6217034;22;20028;-82
2024/01/19 09:42:13;;;;;;;9.45;2.30;;;1.80;99.90;;;0.07;93.86;100558.81;6143902;22;20019;-81
2024/01/19 09:45:02;;;;;;;11.00;1.88;;;1.90;99.90;;;0.07;93.63;100562.25;6183329;22;20026;-83
2024/01/19 09:47:53;;;;;;;7.05;1.85;;;1.90;99.90;;;0.23;93.52;100572.50;6181282;22;20011;-82
2024/01/19 09:50:32;;;;;;;10.32;2.00;;;1.90;99.90;;;0.19;93.01;100567.38;6198430;22;20447;-83
2024/01/19 09:52:59;;;;;;;11.43;2.17;;;1.90;99.90;;;0.26;92.02;100575.06;6200378;22;20096;-81
2024/01/19 09:55:34;;;;;;;14.35;2.50;;;1.90;99.90;;;0.33;92.25;100585.38;6179638;22;20020;-81
2024/01/19 09:58:03;;;;;;;16.95;2.58;;;1.90;99.90;;;0.34;92.11;100586.25;6222790;22;20066;-82
2024/01/19 10:00:44;;;;;;;7.28;1.70;;;2.00;99.90;;;0.43;91.68;100593.94;6203340;22;20062;-81
2024/01/19 10:03:17;;;;;;;8.65;1.92;;;;;;;0.55;91.17;100601.63;6219777;22;20892;-81
2024/01/19 10:05:43;;;;;;;11.35;2.08;;;2.10;99.90;;;0.64;90.95;100605.03;6211860;22;20028;-81
2024/01/19 10:08:38;;;;;;;7.72;1.90;;;2.20;99.90;;;0.61;90.55;100601.59;6129626;22;20995;-81
2024/01/19 10:11:08;;;;;;;8.02;1.75;;;2.20;99.90;;;0.61;90.42;100611.94;6149688;22;20414;-81
2024/01/19 10:13:44;;;;;;;11.32;1.98;;;2.20;99.90;;;0.63;89.90;100624.91;6148288;22;20078;-81
2024/01/19 10:16:13;;;;;;;10.80;2.30;;;2.20;99.90;;;0.56;90.27;100626.69;6134278;23;24559;-81
2024/01/19 10:18:49;;;;;;;11.10;2.70;;;2.20;99.90;;;0.65;89.89;100632.66;6205719;22;20507;-81
2024/01/19 10:21:27;;;;;;;16.40;2.13;;;2.30;99.90;;;0.69;90.09;100626.56;6163083;22;20019;-81
2024/01/19 10:24:23;;;;;;;11.32;1.80;;;2.30;99.90;;;0.74;89.83;100632.59;6105343;22;20016;-81
2024/01/19 10:26:53;;;;;;;13.77;2.10;;;2.30;99.90;;;0.79;89.71;100642.03;6182542;22;20011;-81
2024/01/19 10:29:42;;;;;;;8.35;1.60;;;2.40;99.90;;;0.81;89.71;100650.66;6084653;23;20009;-83
2024/01/19 10:32:23;;;;;;;19.08;1.67;;;2.40;99.90;;;0.93;89.37;100659.22;6125521;23;20864;-82
2024/01/19 10:35:08;;;;;;;10.32;1.33;;;2.50;99.90;;;0.92;89.11;100658.34;6164013;22;20035;-82
2024/01/19 10:37:44;;;;;;;9.48;1.45;;;2.50;99.90;;;0.76;89.03;100659.38;6134791;22;20004;-82
2024/01/19 10:43:23;;;;;;;11.02;1.45;;;2.50;99.90;;;0.77;89.27;100663.66;6191998;22;20361;-81
2024/01/19 10:45:49;;;;;;;12.82;1.70;;;2.50;99.90;;;0.87;88.96;100667.91;6171954;22;20145;-81
2024/01/19 10:48:26;;;;;;;6.93;1.50;;;2.50;99.90;;;0.90;88.65;100667.88;6233908;22;20188;-80
2024/01/19 10:51:03;;;;;;;10.73;1.20;;;2.60;99.90;;;0.93;88.43;100665.28;6186042;22;20015;-81
2024/01/19 10:53:32;;;;;;;8.05;1.42;;;2.50;99.90;;;0.96;87.99;100675.63;6136530;22;20024;-81
2024/01/19 10:56:19;;;;;;;9.20;1.60;;;2.50;99.90;;;1.07;87.65;100672.09;6147670;22;20359;-81
2024/01/19 10:58:46;;;;;;;9.35;1.15;;;2.60;99.90;;;1.08;87.02;100679.84;6148422;23;20016;-81
2024/01/19 11:01:17;;;;;;;7.95;1.98;;;2.60;99.90;;;1.11;86.71;100681.56;6184517;22;20016;-80